sensor_id;sensor_type;location;lat;lon;timestamp;temperature;humidity
17565;DHT22;62994;52.126;5.596;2023-05-07T00:00:30;17.50;99.90
17565;DHT22;62994;52.126;5.596;2023-05-07T00:02:58;17.50;99.90
17565;DHT22;62994;52.126;5.596;2023-05-07T00:05:25;17.40;99.90
17565;DHT22;62994;52.126;5.596;2023-05-07T00:07:54;17.40;99.90
17565;DHT22;62994;52.126;5.596;2023-05-07T00:10:21;17.40;99.90
17565;DHT22;62994;52.126;5.596;2023-05-07T00:12:47;17.40;99.90
17565;DHT22;62994;52.126;5.596;2023-05-07T00:15:15;17.40;99.90
17565;DHT22;62994;52.126;5.596;2023-05-07T00:17:42;17.40;99.90
17565;DHT22;62994;52.126;5.596;2023-05-07T00:20:12;17.40;99.90
17565;DHT22;62994;52.126;5.596;2023-05-07T00:22:39;17.40;99.90
17565;DHT22;62994;52.126;5.596;2023-05-07T00:25:06;17.40;99.90
17565;DHT22;62994;52.126;5.596;2023-05-07T00:27:42;17.40;99.90
17565;DHT22;62994;52.126;5.596;2023-05-07T00:30:09;17.40;99.90
17565;DHT22;62994;52.126;5.596;2023-05-07T00:32:37;17.30;99.90
17565;DHT22;62994;52.126;5.596;2023-05-07T00:35:05;17.30;99.90
17565;DHT22;62994;52.126;5.596;2023-05-07T00:37:34;17.30;99.90
17565;DHT22;62994;52.126;5.596;2023-05-07T00:40:01;17.30;99.90
17565;DHT22;62994;52.126;5.596;2023-05-07T00:42:30;17.30;99.90
17565;DHT22;62994;52.126;5.596;2023-05-07T00:44:58;17.30;99.90
17565;DHT22;62994;52.126;5.596;2023-05-07T00:47:25;17.20;99.90
17565;DHT22;62994;52.126;5.596;2023-05-07T00:49:52;17.20;99.90
17565;DHT22;62994;52.126;5.596;2023-05-07T00:52:20;17.20;99.90
17565;DHT22;62994;52.126;5.596;2023-05-07T00:54:49;17.10;99.90
17565;DHT22;62994;52.126;5.596;2023-05-07T00:57:16;17.10;99.90
17565;DHT22;62994;52.126;5.596;2023-05-07T00:59:47;17.00;99.90
17565;DHT22;62994;52.126;5.596;2023-05-07T01:02:14;17.10;99.90
17565;DHT22;62994;52.126;5.596;2023-05-07T01:04:46;17.00;99.90
17565;DHT22;62994;52.126;5.596;2023-05-07T01:07:19;17.00;99.90
17565;DHT22;62994;52.126;5.596;2023-05-07T01:09:49;17.10;99.90
17565;DHT22;62994;52.126;5.596;2023-05-07T01:12:16;17.10;99.90
17565;DHT22;62994;52.126;5.596;2023-05-07T01:14:44;17.10;99.90
17565;DHT22;62994;52.126;5.596;2023-05-07T01:17:11;17.10;99.90
17565;DHT22;62994;52.126;5.596;2023-05-07T01:19:43;17.10;99.90
17565;DHT22;62994;52.126;5.596;2023-05-07T01:22:11;17.00;99.90
17565;DHT22;62994;52.126;5.596;2023-05-07T01:24:39;17.00;99.90
17565;DHT22;62994;52.126;5.596;2023-05-07T01:27:07;17.00;99.90
17565;DHT22;62994;52.126;5.596;2023-05-07T01:29:38;16.90;99.90
17565;DHT22;62994;52.126;5.596;2023-05-07T01:32:06;17.00;99.90
17565;DHT22;62994;52.126;5.596;2023-05-07T01:34:34;17.00;99.90
17565;DHT22;62994;52.126;5.596;2023-05-07T01:37:04;16.90;99.90
17565;DHT22;62994;52.126;5.596;2023-05-07T01:39:32;16.90;99.90
17565;DHT22;62994;52.126;5.596;2023-05-07T01:42:00;16.90;99.90
17565;DHT22;62994;52.126;5.596;2023-05-07T01:44:31;16.90;99.90
17565;DHT22;62994;52.126;5.596;2023-05-07T01:46:58;16.90;99.90
17565;DHT22;62994;52.126;5.596;2023-05-07T01:49:26;16.80;99.90
17565;DHT22;62994;52.126;5.596;2023-05-07T01:51:53;16.80;99.90
17565;DHT22;62994;52.126;5.596;2023-05-07T01:54:25;16.80;99.90
17565;DHT22;62994;52.126;5.596;2023-05-07T01:56:56;16.80;99.90
17565;DHT22;62994;52.126;5.596;2023-05-07T01:59:24;16.80;99.90
17565;DHT22;62994;52.126;5.596;2023-05-07T02:01:53;16.80;99.90
17565;DHT22;62994;52.126;5.596;2023-05-07T02:04:28;16.80;99.90
17565;DHT22;62994;52.126;5.596;2023-05-07T02:06:55;16.80;99.90
17565;DHT22;62994;52.126;5.596;2023-05-07T02:09:22;16.80;99.90
17565;DHT22;62994;52.126;5.596;2023-05-07T02:11:49;16.80;99.90
17565;DHT22;62994;52.126;5.596;2023-05-07T02:14:17;16.80;99.90
17565;DHT22;62994;52.126;5.596;2023-05-07T02:16:47;16.80;99.90
17565;DHT22;62994;52.126;5.596;2023-05-07T02:19:14;16.80;99.90
17565;DHT22;62994;52.126;5.596;2023-05-07T02:21:45;16.80;99.90
17565;DHT22;62994;52.126;5.596;2023-05-07T02:24:15;16.80;99.90
17565;DHT22;62994;52.126;5.596;2023-05-07T02:26:42;16.80;99.90
17565;DHT22;62994;52.126;5.596;2023-05-07T02:29:12;16.80;99.90
17565;DHT22;62994;52.126;5.596;2023-05-07T02:31:39;16.80;99.90
17565;DHT22;62994;52.126;5.596;2023-05-07T02:34:07;16.70;99.90
17565;DHT22;62994;52.126;5.596;2023-05-07T02:36:34;16.80;99.90
17565;DHT22;62994;52.126;5.596;2023-05-07T02:39:02;16.80;99.90
17565;DHT22;62994;52.126;5.596;2023-05-07T02:41:29;16.80;99.90
17565;DHT22;62994;52.126;5.596;2023-05-07T02:43:56;16.80;99.90
17565;DHT22;62994;52.126;5.596;2023-05-07T02:46:24;16.80;99.90
17565;DHT22;62994;52.126;5.596;2023-05-07T02:48:51;16.80;99.90
17565;DHT22;62994;52.126;5.596;2023-05-07T02:51:20;16.70;99.90
17565;DHT22;62994;52.126;5.596;2023-05-07T02:53:48;16.70;99.90
17565;DHT22;62994;52.126;5.596;2023-05-07T02:56:15;16.70;99.90
17565;DHT22;62994;52.126;5.596;2023-05-07T02:58:42;16.60;99.90
17565;DHT22;62994;52.126;5.596;2023-05-07T03:01:14;16.60;99.90
17565;DHT22;62994;52.126;5.596;2023-05-07T03:03:44;16.60;99.90
17565;DHT22;62994;52.126;5.596;2023-05-07T03:06:13;16.60;99.90
17565;DHT22;62994;52.126;5.596;2023-05-07T03:08:41;16.60;99.90
17565;DHT22;62994;52.126;5.596;2023-05-07T03:11:11;16.60;99.90
17565;DHT22;62994;52.126;5.596;2023-05-07T03:13:43;16.50;99.90
17565;DHT22;62994;52.126;5.596;2023-05-07T03:16:10;16.50;99.90
17565;DHT22;62994;52.126;5.596;2023-05-07T03:18:42;16.50;99.90
17565;DHT22;62994;52.126;5.596;2023-05-07T03:21:15;16.50;99.90
17565;DHT22;62994;52.126;5.596;2023-05-07T03:23:43;16.40;99.90
17565;DHT22;62994;52.126;5.596;2023-05-07T03:26:10;16.40;99.90
17565;DHT22;62994;52.126;5.596;2023-05-07T03:28:39;16.40;99.90
17565;DHT22;62994;52.126;5.596;2023-05-07T03:31:06;16.20;99.90
17565;DHT22;62994;52.126;5.596;2023-05-07T03:33:49;16.10;99.90
17565;DHT22;62994;52.126;5.596;2023-05-07T03:36:17;16.20;99.90
17565;DHT22;62994;52.126;5.596;2023-05-07T03:38:49;16.10;99.90
17565;DHT22;62994;52.126;5.596;2023-05-07T03:41:16;16.20;99.90
17565;DHT22;62994;52.126;5.596;2023-05-07T03:43:44;16.20;99.90
17565;DHT22;62994;52.126;5.596;2023-05-07T03:46:11;16.20;99.90
17565;DHT22;62994;52.126;5.596;2023-05-07T03:48:43;16.30;99.90
17565;DHT22;62994;52.126;5.596;2023-05-07T03:51:14;16.20;99.90
17565;DHT22;62994;52.126;5.596;2023-05-07T03:53:42;16.30;99.90
17565;DHT22;62994;52.126;5.596;2023-05-07T03:56:10;16.30;99.90
17565;DHT22;62994;52.126;5.596;2023-05-07T03:58:37;16.20;99.90
17565;DHT22;62994;52.126;5.596;2023-05-07T04:01:04;16.20;99.90
17565;DHT22;62994;52.126;5.596;2023-05-07T04:03:38;16.20;99.90
17565;DHT22;62994;52.126;5.596;2023-05-07T04:06:05;16.20;99.90
17565;DHT22;62994;52.126;5.596;2023-05-07T04:08:32;16.20;99.90
17565;DHT22;62994;52.126;5.596;2023-05-07T04:11:05;16.20;99.90
17565;DHT22;62994;52.126;5.596;2023-05-07T04:13:33;16.30;99.90
17565;DHT22;62994;52.126;5.596;2023-05-07T04:16:02;16.30;99.90
17565;DHT22;62994;52.126;5.596;2023-05-07T04:18:34;16.20;99.90
17565;DHT22;62994;52.126;5.596;2023-05-07T04:21:01;16.30;99.90
17565;DHT22;62994;52.126;5.596;2023-05-07T04:23:30;16.30;99.90
17565;DHT22;62994;52.126;5.596;2023-05-07T04:25:57;16.20;99.90
17565;DHT22;62994;52.126;5.596;2023-05-07T04:28:24;16.20;99.90
17565;DHT22;62994;52.126;5.596;2023-05-07T04:30:53;16.30;99.90
17565;DHT22;62994;52.126;5.596;2023-05-07T04:33:20;16.30;99.90
17565;DHT22;62994;52.126;5.596;2023-05-07T04:35:47;16.20;99.90
17565;DHT22;62994;52.126;5.596;2023-05-07T04:38:14;16.20;99.90
17565;DHT22;62994;52.126;5.596;2023-05-07T04:40:42;16.20;99.90
17565;DHT22;62994;52.126;5.596;2023-05-07T04:43:13;16.20;99.90
17565;DHT22;62994;52.126;5.596;2023-05-07T04:45:41;16.20;99.90
17565;DHT22;62994;52.126;5.596;2023-05-07T04:48:10;16.20;99.90
17565;DHT22;62994;52.126;5.596;2023-05-07T04:50:37;16.20;99.90
17565;DHT22;62994;52.126;5.596;2023-05-07T04:53:05;16.20;99.90
17565;DHT22;62994;52.126;5.596;2023-05-07T04:55:34;16.10;99.90
17565;DHT22;62994;52.126;5.596;2023-05-07T04:58:02;16.10;99.90
17565;DHT22;62994;52.126;5.596;2023-05-07T05:00:30;16.10;99.90
17565;DHT22;62994;52.126;5.596;2023-05-07T05:02:57;16.00;99.90
17565;DHT22;62994;52.126;5.596;2023-05-07T05:05:26;16.00;99.90
17565;DHT22;62994;52.126;5.596;2023-05-07T05:07:56;16.00;99.90
17565;DHT22;62994;52.126;5.596;2023-05-07T05:10:25;16.00;99.90
17565;DHT22;62994;52.126;5.596;2023-05-07T05:12:57;16.00;99.90
17565;DHT22;62994;52.126;5.596;2023-05-07T05:15:25;15.90;99.90
17565;DHT22;62994;52.126;5.596;2023-05-07T05:17:53;15.90;99.90
17565;DHT22;62994;52.126;5.596;2023-05-07T05:20:20;15.80;99.90
17565;DHT22;62994;52.126;5.596;2023-05-07T05:22:51;15.80;99.90
17565;DHT22;62994;52.126;5.596;2023-05-07T05:25:19;15.90;99.90
17565;DHT22;62994;52.126;5.596;2023-05-07T05:27:51;15.80;99.90
17565;DHT22;62994;52.126;5.596;2023-05-07T05:30:20;15.80;99.90
17565;DHT22;62994;52.126;5.596;2023-05-07T05:32:52;15.80;99.90
17565;DHT22;62994;52.126;5.596;2023-05-07T05:35:24;15.80;99.90
17565;DHT22;62994;52.126;5.596;2023-05-07T05:37:55;15.80;99.90
17565;DHT22;62994;52.126;5.596;2023-05-07T05:40:22;15.80;99.90
17565;DHT22;62994;52.126;5.596;2023-05-07T05:42:49;15.80;99.90
17565;DHT22;62994;52.126;5.596;2023-05-07T05:45:17;15.90;99.90
17565;DHT22;62994;52.126;5.596;2023-05-07T05:47:44;15.80;99.90
17565;DHT22;62994;52.126;5.596;2023-05-07T05:50:16;15.80;99.90
17565;DHT22;62994;52.126;5.596;2023-05-07T05:52:45;15.80;99.90
17565;DHT22;62994;52.126;5.596;2023-05-07T05:55:14;15.80;99.90
17565;DHT22;62994;52.126;5.596;2023-05-07T05:57:41;15.80;99.90
17565;DHT22;62994;52.126;5.596;2023-05-07T06:00:10;15.90;99.90
17565;DHT22;62994;52.126;5.596;2023-05-07T06:02:40;15.90;99.90
17565;DHT22;62994;52.126;5.596;2023-05-07T06:05:10;15.90;99.90
17565;DHT22;62994;52.126;5.596;2023-05-07T06:07:37;15.90;99.90
17565;DHT22;62994;52.126;5.596;2023-05-07T06:10:05;15.90;99.90
17565;DHT22;62994;52.126;5.596;2023-05-07T06:12:34;15.90;99.90
17565;DHT22;62994;52.126;5.596;2023-05-07T06:15:04;15.90;99.90
17565;DHT22;62994;52.126;5.596;2023-05-07T06:17:31;15.90;99.90
17565;DHT22;62994;52.126;5.596;2023-05-07T06:19:58;16.00;99.90
17565;DHT22;62994;52.126;5.596;2023-05-07T06:22:28;15.90;99.90
17565;DHT22;62994;52.126;5.596;2023-05-07T06:25:00;16.00;99.90
17565;DHT22;62994;52.126;5.596;2023-05-07T06:27:31;16.00;99.90
17565;DHT22;62994;52.126;5.596;2023-05-07T06:30:00;15.90;99.90
17565;DHT22;62994;52.126;5.596;2023-05-07T06:32:29;16.00;99.90
17565;DHT22;62994;52.126;5.596;2023-05-07T06:34:58;16.00;99.90
17565;DHT22;62994;52.126;5.596;2023-05-07T06:37:25;16.10;99.90
17565;DHT22;62994;52.126;5.596;2023-05-07T06:39:54;16.10;99.90
17565;DHT22;62994;52.126;5.596;2023-05-07T06:42:23;16.10;99.90
17565;DHT22;62994;52.126;5.596;2023-05-07T06:44:55;16.00;99.90
17565;DHT22;62994;52.126;5.596;2023-05-07T06:47:31;16.10;99.90
17565;DHT22;62994;52.126;5.596;2023-05-07T06:49:58;16.20;99.90
17565;DHT22;62994;52.126;5.596;2023-05-07T06:52:29;16.30;99.90
17565;DHT22;62994;52.126;5.596;2023-05-07T06:54:56;16.30;99.90
17565;DHT22;62994;52.126;5.596;2023-05-07T06:57:28;16.30;99.90
17565;DHT22;62994;52.126;5.596;2023-05-07T06:59:59;16.30;99.90
17565;DHT22;62994;52.126;5.596;2023-05-07T07:02:26;16.30;99.90
17565;DHT22;62994;52.126;5.596;2023-05-07T07:04:55;16.50;99.90
17565;DHT22;62994;52.126;5.596;2023-05-07T07:07:28;16.60;99.90
17565;DHT22;62994;52.126;5.596;2023-05-07T07:09:58;16.60;99.90
17565;DHT22;62994;52.126;5.596;2023-05-07T07:12:25;16.70;99.90
17565;DHT22;62994;52.126;5.596;2023-05-07T07:14:54;16.70;99.90
17565;DHT22;62994;52.126;5.596;2023-05-07T07:17:21;16.70;99.90
17565;DHT22;62994;52.126;5.596;2023-05-07T07:19:48;16.70;99.90
17565;DHT22;62994;52.126;5.596;2023-05-07T07:22:21;16.70;99.90
17565;DHT22;62994;52.126;5.596;2023-05-07T07:24:51;16.70;99.90
17565;DHT22;62994;52.126;5.596;2023-05-07T07:27:20;16.80;99.90
17565;DHT22;62994;52.126;5.596;2023-05-07T07:29:47;16.80;99.90
17565;DHT22;62994;52.126;5.596;2023-05-07T07:32:19;16.80;99.90
17565;DHT22;62994;52.126;5.596;2023-05-07T07:34:46;16.80;99.90
17565;DHT22;62994;52.126;5.596;2023-05-07T07:37:13;16.80;99.90
17565;DHT22;62994;52.126;5.596;2023-05-07T07:39:52;16.80;99.90
17565;DHT22;62994;52.126;5.596;2023-05-07T07:42:19;16.90;99.90
17565;DHT22;62994;52.126;5.596;2023-05-07T07:44:47;16.80;99.90
17565;DHT22;62994;52.126;5.596;2023-05-07T07:47:17;16.90;99.90
17565;DHT22;62994;52.126;5.596;2023-05-07T07:49:48;16.90;99.90
17565;DHT22;62994;52.126;5.596;2023-05-07T07:52:21;17.00;99.90
17565;DHT22;62994;52.126;5.596;2023-05-07T07:54:48;17.00;99.90
17565;DHT22;62994;52.126;5.596;2023-05-07T07:57:22;17.00;99.90
17565;DHT22;62994;52.126;5.596;2023-05-07T07:59:53;17.00;99.90
17565;DHT22;62994;52.126;5.596;2023-05-07T08:02:24;17.10;99.90
17565;DHT22;62994;52.126;5.596;2023-05-07T08:04:57;17.00;99.90
17565;DHT22;62994;52.126;5.596;2023-05-07T08:07:24;17.00;99.90
17565;DHT22;62994;52.126;5.596;2023-05-07T08:09:51;17.10;99.90
17565;DHT22;62994;52.126;5.596;2023-05-07T08:12:26;17.10;99.90
17565;DHT22;62994;52.126;5.596;2023-05-07T08:14:53;17.10;99.90
17565;DHT22;62994;52.126;5.596;2023-05-07T08:17:20;17.20;99.90
17565;DHT22;62994;52.126;5.596;2023-05-07T08:19:47;17.10;99.90
17565;DHT22;62994;52.126;5.596;2023-05-07T08:22:15;17.20;99.90
17565;DHT22;62994;52.126;5.596;2023-05-07T08:24:48;17.30;99.90
17565;DHT22;62994;52.126;5.596;2023-05-07T08:27:16;17.30;99.90
17565;DHT22;62994;52.126;5.596;2023-05-07T08:29:45;17.40;99.90
17565;DHT22;62994;52.126;5.596;2023-05-07T08:32:19;17.40;99.90
17565;DHT22;62994;52.126;5.596;2023-05-07T08:34:46;17.50;99.90
17565;DHT22;62994;52.126;5.596;2023-05-07T08:37:18;17.40;99.90
17565;DHT22;62994;52.126;5.596;2023-05-07T08:39:45;17.50;99.90
17565;DHT22;62994;52.126;5.596;2023-05-07T08:42:13;17.50;99.90
17565;DHT22;62994;52.126;5.596;2023-05-07T08:44:52;17.50;99.90
17565;DHT22;62994;52.126;5.596;2023-05-07T08:47:31;17.50;99.90
17565;DHT22;62994;52.126;5.596;2023-05-07T08:50:13;17.50;99.90
17565;DHT22;62994;52.126;5.596;2023-05-07T08:52:40;17.40;99.90
17565;DHT22;62994;52.126;5.596;2023-05-07T08:55:16;17.40;99.90
17565;DHT22;62994;52.126;5.596;2023-05-07T08:57:45;17.40;99.90
17565;DHT22;62994;52.126;5.596;2023-05-07T09:00:28;17.40;99.90
17565;DHT22;62994;52.126;5.596;2023-05-07T09:03:00;17.40;99.90
17565;DHT22;62994;52.126;5.596;2023-05-07T09:05:31;17.40;99.90
17565;DHT22;62994;52.126;5.596;2023-05-07T09:08:02;17.40;99.90
17565;DHT22;62994;52.126;5.596;2023-05-07T09:10:29;17.40;99.90
17565;DHT22;62994;52.126;5.596;2023-05-07T09:13:03;17.40;99.90
17565;DHT22;62994;52.126;5.596;2023-05-07T09:15:35;17.40;99.90
17565;DHT22;62994;52.126;5.596;2023-05-07T09:18:08;17.40;99.90
17565;DHT22;62994;52.126;5.596;2023-05-07T09:20:36;17.40;99.90
17565;DHT22;62994;52.126;5.596;2023-05-07T09:23:07;17.50;99.90
17565;DHT22;62994;52.126;5.596;2023-05-07T09:25:40;17.50;99.90
17565;DHT22;62994;52.126;5.596;2023-05-07T09:28:21;17.50;99.90
17565;DHT22;62994;52.126;5.596;2023-05-07T09:30:50;17.50;99.90
17565;DHT22;62994;52.126;5.596;2023-05-07T09:33:17;17.60;99.90
17565;DHT22;62994;52.126;5.596;2023-05-07T09:35:45;17.50;99.90
17565;DHT22;62994;52.126;5.596;2023-05-07T09:38:17;17.50;99.90
17565;DHT22;62994;52.126;5.596;2023-05-07T09:41:02;17.50;99.90
17565;DHT22;62994;52.126;5.596;2023-05-07T09:43:34;17.50;99.90
17565;DHT22;62994;52.126;5.596;2023-05-07T09:46:07;17.70;99.90
17565;DHT22;62994;52.126;5.596;2023-05-07T09:48:37;17.80;99.90
17565;DHT22;62994;52.126;5.596;2023-05-07T09:51:11;17.70;99.90
17565;DHT22;62994;52.126;5.596;2023-05-07T09:53:44;17.70;99.90
17565;DHT22;62994;52.126;5.596;2023-05-07T09:56:13;17.70;99.90
17565;DHT22;62994;52.126;5.596;2023-05-07T09:58:41;17.80;99.90
17565;DHT22;62994;52.126;5.596;2023-05-07T10:01:15;17.80;99.90
17565;DHT22;62994;52.126;5.596;2023-05-07T10:03:49;17.90;99.90
17565;DHT22;62994;52.126;5.596;2023-05-07T10:06:16;18.00;99.90
17565;DHT22;62994;52.126;5.596;2023-05-07T10:08:45;18.00;99.90
17565;DHT22;62994;52.126;5.596;2023-05-07T10:11:20;18.10;99.90
17565;DHT22;62994;52.126;5.596;2023-05-07T10:13:48;18.20;99.90
17565;DHT22;62994;52.126;5.596;2023-05-07T10:16:17;18.30;99.90
17565;DHT22;62994;52.126;5.596;2023-05-07T10:18:49;18.30;99.90
17565;DHT22;62994;52.126;5.596;2023-05-07T10:21:18;18.40;99.90
17565;DHT22;62994;52.126;5.596;2023-05-07T10:23:47;18.40;99.90
17565;DHT22;62994;52.126;5.596;2023-05-07T10:26:17;18.60;99.90
17565;DHT22;62994;52.126;5.596;2023-05-07T10:28:58;18.60;99.90
17565;DHT22;62994;52.126;5.596;2023-05-07T10:31:42;18.80;99.90
17565;DHT22;62994;52.126;5.596;2023-05-07T10:34:16;18.80;99.90
17565;DHT22;62994;52.126;5.596;2023-05-07T10:36:48;18.80;99.90
17565;DHT22;62994;52.126;5.596;2023-05-07T10:39:15;18.80;99.90
17565;DHT22;62994;52.126;5.596;2023-05-07T10:41:42;18.80;99.90
17565;DHT22;62994;52.126;5.596;2023-05-07T10:44:11;18.90;99.90
17565;DHT22;62994;52.126;5.596;2023-05-07T10:46:40;18.90;99.90
17565;DHT22;62994;52.126;5.596;2023-05-07T10:49:12;19.00;99.90
17565;DHT22;62994;52.126;5.596;2023-05-07T10:55:21;19.20;99.90
17565;DHT22;62994;52.126;5.596;2023-05-07T10:57:50;19.30;99.90
17565;DHT22;62994;52.126;5.596;2023-05-07T11:00:42;19.40;99.90
17565;DHT22;62994;52.126;5.596;2023-05-07T11:03:11;19.50;99.90
17565;DHT22;62994;52.126;5.596;2023-05-07T11:05:41;19.60;99.90
17565;DHT22;62994;52.126;5.596;2023-05-07T11:08:11;19.70;99.90
17565;DHT22;62994;52.126;5.596;2023-05-07T11:10:49;19.90;99.90
17565;DHT22;62994;52.126;5.596;2023-05-07T11:13:18;20.00;99.90
17565;DHT22;62994;52.126;5.596;2023-05-07T11:15:51;20.20;99.90
17565;DHT22;62994;52.126;5.596;2023-05-07T11:18:19;20.30;99.90
17565;DHT22;62994;52.126;5.596;2023-05-07T11:20:55;20.40;99.90
17565;DHT22;62994;52.126;5.596;2023-05-07T11:23:56;20.50;99.90
17565;DHT22;62994;52.126;5.596;2023-05-07T11:26:28;20.50;99.90
17565;DHT22;62994;52.126;5.596;2023-05-07T11:28:57;20.60;99.90
17565;DHT22;62994;52.126;5.596;2023-05-07T11:31:27;20.70;99.90
17565;DHT22;62994;52.126;5.596;2023-05-07T11:33:57;20.80;99.90
17565;DHT22;62994;52.126;5.596;2023-05-07T11:36:24;20.70;99.90
17565;DHT22;62994;52.126;5.596;2023-05-07T11:38:57;20.80;99.90
17565;DHT22;62994;52.126;5.596;2023-05-07T11:41:34;20.80;99.90
17565;DHT22;62994;52.126;5.596;2023-05-07T11:44:03;20.80;99.90
17565;DHT22;62994;52.126;5.596;2023-05-07T11:46:30;20.90;99.90
17565;DHT22;62994;52.126;5.596;2023-05-07T11:48:58;20.90;99.90
17565;DHT22;62994;52.126;5.596;2023-05-07T11:51:33;20.80;99.90
17565;DHT22;62994;52.126;5.596;2023-05-07T11:54:03;20.90;99.90
17565;DHT22;62994;52.126;5.596;2023-05-07T11:56:36;20.90;99.90
17565;DHT22;62994;52.126;5.596;2023-05-07T11:59:03;20.90;99.90
17565;DHT22;62994;52.126;5.596;2023-05-07T12:01:32;20.90;99.90
17565;DHT22;62994;52.126;5.596;2023-05-07T12:04:06;20.90;99.90
17565;DHT22;62994;52.126;5.596;2023-05-07T12:06:36;21.00;99.90
17565;DHT22;62994;52.126;5.596;2023-05-07T12:09:11;21.10;99.90
17565;DHT22;62994;52.126;5.596;2023-05-07T12:11:38;21.10;99.90
17565;DHT22;62994;52.126;5.596;2023-05-07T12:14:06;21.20;99.90
17565;DHT22;62994;52.126;5.596;2023-05-07T12:16:33;21.10;99.90
17565;DHT22;62994;52.126;5.596;2023-05-07T12:19:01;21.10;99.90
17565;DHT22;62994;52.126;5.596;2023-05-07T12:21:30;21.20;99.90
17565;DHT22;62994;52.126;5.596;2023-05-07T12:23:57;21.20;99.90
17565;DHT22;62994;52.126;5.596;2023-05-07T12:26:24;21.20;99.90
17565;DHT22;62994;52.126;5.596;2023-05-07T12:28:59;21.30;99.90
17565;DHT22;62994;52.126;5.596;2023-05-07T12:31:32;21.40;99.90
17565;DHT22;62994;52.126;5.596;2023-05-07T12:34:04;21.40;99.90
17565;DHT22;62994;52.126;5.596;2023-05-07T12:36:38;21.50;99.90
17565;DHT22;62994;52.126;5.596;2023-05-07T12:39:06;21.60;99.90
17565;DHT22;62994;52.126;5.596;2023-05-07T12:44:22;21.70;99.90
17565;DHT22;62994;52.126;5.596;2023-05-07T12:46:54;21.70;99.90
17565;DHT22;62994;52.126;5.596;2023-05-07T12:49:23;21.80;99.90
17565;DHT22;62994;52.126;5.596;2023-05-07T12:51:53;21.90;99.90
17565;DHT22;62994;52.126;5.596;2023-05-07T12:54:30;22.10;99.90
17565;DHT22;62994;52.126;5.596;2023-05-07T12:57:01;22.20;99.90
17565;DHT22;62994;52.126;5.596;2023-05-07T12:59:33;22.40;99.90
17565;DHT22;62994;52.126;5.596;2023-05-07T13:02:00;22.60;99.90
17565;DHT22;62994;52.126;5.596;2023-05-07T13:04:36;22.60;99.90
17565;DHT22;62994;52.126;5.596;2023-05-07T13:07:18;22.80;99.90
17565;DHT22;62994;52.126;5.596;2023-05-07T13:09:52;22.80;99.90
17565;DHT22;62994;52.126;5.596;2023-05-07T13:12:30;22.90;99.90
17565;DHT22;62994;52.126;5.596;2023-05-07T13:14:57;22.90;99.90
17565;DHT22;62994;52.126;5.596;2023-05-07T13:17:31;22.80;99.90
17565;DHT22;62994;52.126;5.596;2023-05-07T13:20:01;22.90;99.90
17565;DHT22;62994;52.126;5.596;2023-05-07T13:22:30;23.00;99.90
17565;DHT22;62994;52.126;5.596;2023-05-07T13:25:13;23.00;99.90
17565;DHT22;62994;52.126;5.596;2023-05-07T13:27:46;23.00;99.90
17565;DHT22;62994;52.126;5.596;2023-05-07T13:30:13;23.00;99.90
17565;DHT22;62994;52.126;5.596;2023-05-07T13:32:42;22.90;99.90
17565;DHT22;62994;52.126;5.596;2023-05-07T13:35:21;22.90;99.90
17565;DHT22;62994;52.126;5.596;2023-05-07T13:37:50;22.80;99.90
17565;DHT22;62994;52.126;5.596;2023-05-07T13:40:22;22.70;99.90
17565;DHT22;62994;52.126;5.596;2023-05-07T13:42:51;22.60;99.90
17565;DHT22;62994;52.126;5.596;2023-05-07T13:45:18;22.60;99.90
17565;DHT22;62994;52.126;5.596;2023-05-07T13:47:47;22.60;99.90
17565;DHT22;62994;52.126;5.596;2023-05-07T13:50:19;22.60;99.90
17565;DHT22;62994;52.126;5.596;2023-05-07T13:52:48;22.40;99.90
17565;DHT22;62994;52.126;5.596;2023-05-07T13:55:18;22.20;99.90
17565;DHT22;62994;52.126;5.596;2023-05-07T13:57:45;22.20;99.90
17565;DHT22;62994;52.126;5.596;2023-05-07T14:00:13;22.20;99.90
17565;DHT22;62994;52.126;5.596;2023-05-07T14:02:43;22.10;99.90
17565;DHT22;62994;52.126;5.596;2023-05-07T14:05:10;22.00;99.90
17565;DHT22;62994;52.126;5.596;2023-05-07T14:07:46;21.90;99.90
17565;DHT22;62994;52.126;5.596;2023-05-07T14:10:20;22.00;99.90
17565;DHT22;62994;52.126;5.596;2023-05-07T14:12:52;21.90;99.90
17565;DHT22;62994;52.126;5.596;2023-05-07T14:15:21;22.00;99.90
17565;DHT22;62994;52.126;5.596;2023-05-07T14:17:53;22.00;99.90
17565;DHT22;62994;52.126;5.596;2023-05-07T14:20:32;22.00;99.90
17565;DHT22;62994;52.126;5.596;2023-05-07T14:22:58;22.10;99.90
17565;DHT22;62994;52.126;5.596;2023-05-07T14:25:30;22.10;99.90
17565;DHT22;62994;52.126;5.596;2023-05-07T14:28:03;22.10;99.90
17565;DHT22;62994;52.126;5.596;2023-05-07T14:30:30;22.10;99.90
17565;DHT22;62994;52.126;5.596;2023-05-07T14:32:59;22.10;99.90
17565;DHT22;62994;52.126;5.596;2023-05-07T14:35:26;22.10;99.90
17565;DHT22;62994;52.126;5.596;2023-05-07T14:37:57;22.10;99.90
17565;DHT22;62994;52.126;5.596;2023-05-07T14:40:31;22.10;99.90
17565;DHT22;62994;52.126;5.596;2023-05-07T14:42:58;21.90;99.90
17565;DHT22;62994;52.126;5.596;2023-05-07T14:45:29;21.80;99.90
17565;DHT22;62994;52.126;5.596;2023-05-07T14:47:57;21.80;99.90
17565;DHT22;62994;52.126;5.596;2023-05-07T14:50:24;21.80;99.90
17565;DHT22;62994;52.126;5.596;2023-05-07T14:52:53;21.90;99.90
17565;DHT22;62994;52.126;5.596;2023-05-07T14:55:20;21.90;99.90
17565;DHT22;62994;52.126;5.596;2023-05-07T14:57:48;22.00;99.90
17565;DHT22;62994;52.126;5.596;2023-05-07T15:00:16;22.10;99.90
17565;DHT22;62994;52.126;5.596;2023-05-07T15:02:43;22.10;99.90
17565;DHT22;62994;52.126;5.596;2023-05-07T15:05:16;22.10;99.90
17565;DHT22;62994;52.126;5.596;2023-05-07T15:07:49;22.00;99.90
17565;DHT22;62994;52.126;5.596;2023-05-07T15:10:25;22.00;99.90
17565;DHT22;62994;52.126;5.596;2023-05-07T15:12:54;21.90;99.90
17565;DHT22;62994;52.126;5.596;2023-05-07T15:15:27;21.90;99.90
17565;DHT22;62994;52.126;5.596;2023-05-07T15:17:58;21.90;99.90
17565;DHT22;62994;52.126;5.596;2023-05-07T15:20:34;21.90;99.90
17565;DHT22;62994;52.126;5.596;2023-05-07T15:23:01;21.90;99.90
17565;DHT22;62994;52.126;5.596;2023-05-07T15:25:35;21.90;99.90
17565;DHT22;62994;52.126;5.596;2023-05-07T15:28:04;21.80;99.90
17565;DHT22;62994;52.126;5.596;2023-05-07T15:30:31;21.80;99.90
17565;DHT22;62994;52.126;5.596;2023-05-07T15:32:58;21.70;99.90
17565;DHT22;62994;52.126;5.596;2023-05-07T15:35:29;21.50;99.90
17565;DHT22;62994;52.126;5.596;2023-05-07T15:37:56;21.50;99.90
17565;DHT22;62994;52.126;5.596;2023-05-07T15:40:25;21.40;99.90
17565;DHT22;62994;52.126;5.596;2023-05-07T15:42:59;21.30;99.90
17565;DHT22;62994;52.126;5.596;2023-05-07T15:45:28;21.10;99.90
17565;DHT22;62994;52.126;5.596;2023-05-07T15:48:03;21.10;99.90
17565;DHT22;62994;52.126;5.596;2023-05-07T15:50:31;21.00;99.90
17565;DHT22;62994;52.126;5.596;2023-05-07T15:52:58;21.00;99.90